Time;durP1;ratioP1;P1;durP2;ratioP2;P2;SDS_P1;SDS_P2;PMS_P1;PMS_P2;Temp;Humidity;BMP_temperature;BMP_pressure;BME280_temperature;BME280_humidity;BME280_pressure;Samples;Min_cycle;Max_cycle;Signal;HPM_P1;HPM_P2
2021/08/10 00:00:04;;;;;;;3.00;2.00;;;;;;;;;;6217919;28;20064;-81
2021/08/10 00:03:11;;;;;;;3.65;1.80;;;;;;;;;;6218936;28;20038;-81
2021/08/10 00:06:13;;;;;;;4.80;2.00;;;;;;;;;;6217471;28;20061;-81
2021/08/10 00:09:14;;;;;;;5.95;2.13;;;;;;;;;;6218992;28;20046;-80
2021/08/10 00:12:16;;;;;;;4.32;2.50;;;;;;;;;;6219306;28;20046;-80
2021/08/10 00:15:18;;;;;;;3.17;1.65;;;;;;;;;;6217141;28;20037;-81
2021/08/10 00:18:20;;;;;;;3.67;1.73;;;;;;;;;;6218919;28;20049;-81
2021/08/10 00:21:21;;;;;;;3.10;1.52;;;;;;;;;;6241448;28;20049;-81
2021/08/10 00:24:23;;;;;;;2.88;1.50;;;;;;;;;;6252606;28;20067;-80
2021/08/10 00:27:24;;;;;;;2.88;1.55;;;;;;;;;;6249916;28;20056;-80
2021/08/10 00:30:27;;;;;;;4.47;1.77;;;;;;;;;;6235507;28;20041;-81
2021/08/10 00:33:28;;;;;;;3.60;2.07;;;;;;;;;;6240606;28;20057;-81
2021/08/10 00:36:30;;;;;;;2.55;1.70;;;;;;;;;;6224605;28;20049;-80
2021/08/10 00:39:32;;;;;;;4.57;1.70;;;;;;;;;;6241299;28;20725;-81
2021/08/10 00:42:34;;;;;;;3.00;1.65;;;;;;;;;;6221766;28;20055;-81
2021/08/10 00:45:38;;;;;;;4.15;1.65;;;;;;;;;;6200193;28;20049;-80
2021/08/10 00:48:41;;;;;;;2.00;1.60;;;;;;;;;;6221450;28;20095;-81
2021/08/10 00:51:43;;;;;;;3.08;1.52;;;;;;;;;;6205641;28;20061;-80
2021/08/10 00:54:47;;;;;;;2.03;1.70;;;;;;;;;;6219596;28;20125;-81
2021/08/10 00:57:50;;;;;;;3.80;1.80;;;;;;;;;;6221699;28;20041;-80
2021/08/10 01:00:52;;;;;;;3.00;2.03;;;;;;;;;;6221123;28;20851;-80
2021/08/10 01:03:54;;;;;;;3.65;1.70;;;;;;;;;;6219751;28;20076;-81
2021/08/10 01:07:06;;;;;;;;;;;;;;;;;;6206613;28;20530;-80
2021/08/10 01:10:30;;;;;;;2.83;1.42;;;;;;;;;;6215201;28;19953;-80
2021/08/10 01:13:56;;;;;;;3.08;1.52;;;;;;;;;;6234247;28;20924;-81
2021/08/10 01:17:04;;;;;;;3.75;1.63;;;;;;;;;;6222564;28;20415;-80
2021/08/10 01:20:12;;;;;;;2.53;1.90;;;;;;;;;;6239880;28;20045;-80
2021/08/10 01:23:23;;;;;;;4.30;1.77;;;;;;;;;;6222033;28;20045;-80
2021/08/10 01:26:37;;;;;;;4.15;1.65;;;;;;;;;;6223684;28;20124;-80
2021/08/10 01:30:13;;;;;;;3.92;1.80;;;;;;;;;;6218253;28;20033;-81
2021/08/10 01:33:16;;;;;;;3.58;2.30;;;;;;;;;;6205677;28;20042;-80
2021/08/10 01:36:21;;;;;;;5.38;2.03;;;;;;;;;;6224233;28;20194;-80
2021/08/10 01:39:27;;;;;;;4.68;1.90;;;;;;;;;;6221230;28;20048;-80
2021/08/10 01:42:34;;;;;;;4.55;1.90;;;;;;;;;;6230701;28;20127;-80
2021/08/10 01:45:37;;;;;;;6.28;2.10;;;;;;;;;;6238753;28;20503;-80
2021/08/10 01:48:44;;;;;;;3.22;1.77;;;;;;;;;;6202273;28;20049;-80
2021/08/10 01:51:48;;;;;;;3.42;1.85;;;;;;;;;;6214629;28;20053;-83
2021/08/10 01:54:51;;;;;;;3.60;1.50;;;;;;;;;;6203323;28;20049;-83
2021/08/10 01:57:54;;;;;;;2.72;1.70;;;;;;;;;;6224122;28;20046;-82
2021/08/10 02:00:57;;;;;;;3.45;1.90;;;;;;;;;;6240843;28;20041;-83
2021/08/10 02:04:03;;;;;;;2.80;1.83;;;;;;;;;;6228304;28;20049;-80
2021/08/10 02:07:05;;;;;;;3.97;2.10;;;;;;;;;;6203988;28;20056;-80
2021/08/10 02:10:08;;;;;;;2.90;1.60;;;;;;;;;;6198537;28;20038;-82
2021/08/10 02:13:12;;;;;;;3.38;1.70;;;;;;;;;;6214593;28;20120;-82
2021/08/10 02:16:18;;;;;;;2.53;1.40;;;;;;;;;;6243206;28;20160;-82
2021/08/10 02:19:21;;;;;;;4.63;1.83;;;;;;;;;;6221007;28;20101;-82
2021/08/10 02:22:28;;;;;;;2.65;1.40;;;;;;;;;;6234162;28;20054;-79
2021/08/10 02:25:29;;;;;;;2.38;1.63;;;;;;;;;;6220348;28;20074;-80
2021/08/10 02:28:41;;;;;;;3.33;1.70;;;;;;;;;;6235710;28;20046;-82
2021/08/10 02:31:49;;;;;;;2.50;1.95;;;;;;;;;;6201148;28;20049;-80
2021/08/10 02:34:52;;;;;;;3.67;1.60;;;;;;;;;;6218674;28;20116;-80
2021/08/10 02:37:58;;;;;;;5.33;1.87;;;;;;;;;;6244082;28;20052;-83
2021/08/10 02:41:01;;;;;;;4.65;1.80;;;;;;;;;;6210949;28;20456;-82
2021/08/10 02:44:09;;;;;;;2.10;1.77;;;;;;;;;;6225836;28;20037;-83
2021/08/10 02:47:13;;;;;;;3.50;2.08;;;;;;;;;;6217745;28;20065;-80
2021/08/10 02:50:17;;;;;;;6.10;2.47;;;;;;;;;;6225687;28;20046;-79
2021/08/10 02:53:19;;;;;;;2.88;1.60;;;;;;;;;;6210947;28;20069;-81
2021/08/10 02:56:27;;;;;;;3.92;1.65;;;;;;;;;;6243118;28;20042;-80
2021/08/10 02:59:52;;;;;;;2.92;1.70;;;;;;;;;;6226126;28;20088;-80
2021/08/10 03:02:59;;;;;;;2.03;1.70;;;;;;;;;;6244068;28;20045;-80
2021/08/10 03:06:05;;;;;;;2.80;1.80;;;;;;;;;;6215789;28;20045;-80
2021/08/10 03:09:09;;;;;;;3.78;1.80;;;;;;;;;;6226579;28;20428;-83
2021/08/10 03:12:13;;;;;;;4.00;1.98;;;;;;;;;;6243859;28;20045;-80
2021/08/10 03:15:20;;;;;;;4.07;1.70;;;;;;;;;;6204046;28;20149;-80
2021/08/10 03:18:28;;;;;;;2.92;1.67;;;;;;;;;;6218182;28;20538;-80
2021/08/10 03:21:32;;;;;;;3.33;1.90;;;;;;;;;;6232607;28;20411;-80
2021/08/10 03:24:34;;;;;;;;;;;;;;;;;;6225729;28;20080;-80
2021/08/10 03:27:37;;;;;;;3.90;1.63;;;;;;;;;;6243201;28;19928;-81
2021/08/10 03:30:40;;;;;;;5.22;2.00;;;;;;;;;;6226152;28;20046;-81
2021/08/10 03:33:43;;;;;;;2.55;1.52;;;;;;;;;;6226561;28;20073;-81
2021/08/10 03:36:48;;;;;;;;;;;;;;;;;;6210647;28;20117;-80
2021/08/10 03:39:51;;;;;;;3.60;2.00;;;;;;;;;;6218320;28;19985;-82
2021/08/10 03:42:53;;;;;;;5.43;2.13;;;;;;;;;;6225230;28;20045;-81
2021/08/10 03:45:58;;;;;;;2.70;1.83;;;;;;;;;;6201766;28;20049;-81
2021/08/10 03:49:04;;;;;;;5.22;2.03;;;;;;;;;;6203652;28;20460;-82
2021/08/10 03:52:06;;;;;;;3.67;1.98;;;;;;;;;;6204271;28;20038;-80
2021/08/10 03:55:08;;;;;;;3.20;1.90;;;;;;;;;;6242691;28;20044;-81
2021/08/10 03:58:10;;;;;;;4.70;1.90;;;;;;;;;;6226991;28;20526;-81
2021/08/10 04:01:15;;;;;;;5.57;2.15;;;;;;;;;;6217716;28;20071;-81
2021/08/10 04:04:23;;;;;;;2.83;1.80;;;;;;;;;;6218365;28;20053;-81
2021/08/10 04:07:32;;;;;;;4.68;2.10;;;;;;;;;;6241494;28;20052;-81
2021/08/10 04:10:48;;;;;;;3.55;1.90;;;;;;;;;;6234325;28;20690;-81
2021/08/10 04:14:00;;;;;;;4.68;1.90;;;;;;;;;;6223163;28;20075;-81
2021/08/10 04:17:06;;;;;;;4.32;2.30;;;;;;;;;;6216855;28;20042;-81
2021/08/10 04:20:13;;;;;;;5.93;2.10;;;;;;;;;;6214510;28;20038;-81
2021/08/10 04:23:16;;;;;;;4.88;1.98;;;;;;;;;;6203989;28;20054;-82
2021/08/10 04:26:17;;;;;;;3.70;1.83;;;;;;;;;;6211852;28;20115;-82
2021/08/10 04:29:19;;;;;;;5.13;1.92;;;;;;;;;;6205297;28;20068;-82
2021/08/10 04:32:22;;;;;;;3.35;1.60;;;;;;;;;;6218732;28;20049;-82
2021/08/10 04:35:25;;;;;;;2.58;1.58;;;;;;;;;;6224200;28;20073;-82
2021/08/10 04:38:27;;;;;;;17.17;2.35;;;;;;;;;;6218203;28;20046;-82
2021/08/10 04:41:31;;;;;;;3.25;1.70;;;;;;;;;;6221281;28;20048;-82
2021/08/10 04:44:34;;;;;;;3.83;2.00;;;;;;;;;;6235143;28;20055;-83
2021/08/10 04:47:36;;;;;;;5.18;1.80;;;;;;;;;;6226514;28;20038;-83
2021/08/10 04:50:40;;;;;;;4.60;2.13;;;;;;;;;;6210438;28;20041;-83
2021/08/10 04:53:46;;;;;;;6.90;1.98;;;;;;;;;;6227025;28;20057;-82
2021/08/10 04:56:48;;;;;;;4.18;2.30;;;;;;;;;;6223508;28;20491;-83
2021/08/10 04:59:52;;;;;;;3.50;1.90;;;;;;;;;;6182150;28;20121;-81
2021/08/10 05:02:53;;;;;;;2.67;1.67;;;;;;;;;;6224048;28;20478;-82
2021/08/10 05:05:57;;;;;;;;;;;;;;;;;;6225575;28;20410;-82
2021/08/10 05:09:03;;;;;;;3.22;1.80;;;;;;;;;;6229355;28;19921;-81
2021/08/10 05:12:05;;;;;;;3.13;1.80;;;;;;;;;;6214540;28;20045;-80
2021/08/10 05:15:07;;;;;;;5.50;2.40;;;;;;;;;;6237357;28;20103;-80
2021/08/10 05:18:09;;;;;;;2.35;1.90;;;;;;;;;;6228480;28;20441;-81
2021/08/10 05:21:16;;;;;;;4.15;2.08;;;;;;;;;;6225517;28;20037;-82
2021/08/10 05:24:23;;;;;;;3.83;1.88;;;;;;;;;;6210599;28;20391;-82
2021/08/10 05:27:25;;;;;;;2.97;1.77;;;;;;;;;;6227113;28;20046;-82
2021/08/10 05:30:27;;;;;;;3.92;2.03;;;;;;;;;;6248510;28;20050;-81
2021/08/10 05:33:34;;;;;;;3.63;2.10;;;;;;;;;;6243663;28;20057;-82
2021/08/10 05:36:41;;;;;;;3.78;1.88;;;;;;;;;;6201973;28;20046;-82
2021/08/10 05:39:46;;;;;;;3.03;1.80;;;;;;;;;;6215325;28;20038;-82
2021/08/10 05:42:49;;;;;;;2.50;1.52;;;;;;;;;;6216754;28;20045;-81
2021/08/10 05:45:52;;;;;;;2.83;1.75;;;;;;;;;;6219118;28;20072;-81
2021/08/10 05:48:54;;;;;;;2.40;1.90;;;;;;;;;;6225880;28;20513;-82
2021/08/10 05:51:57;;;;;;;4.88;1.85;;;;;;;;;;6212179;28;20045;-82
2021/08/10 05:55:03;;;;;;;3.85;2.30;;;;;;;;;;6206736;28;20038;-83
2021/08/10 05:58:05;;;;;;;3.83;1.88;;;;;;;;;;6208992;28;20130;-81
2021/08/10 06:01:07;;;;;;;4.72;2.20;;;;;;;;;;6225783;28;20417;-82
2021/08/10 06:04:09;;;;;;;5.22;2.60;;;;;;;;;;6231789;28;20048;-81
2021/08/10 06:07:12;;;;;;;8.20;3.20;;;;;;;;;;6229939;28;20053;-82
2021/08/10 06:10:15;;;;;;;7.53;3.78;;;;;;;;;;6221543;28;20049;-82
2021/08/10 06:13:20;;;;;;;9.90;3.58;;;;;;;;;;6180315;28;20049;-84
2021/08/10 06:16:22;;;;;;;8.85;3.17;;;;;;;;;;6247185;28;20056;-82
2021/08/10 06:19:26;;;;;;;10.07;4.00;;;;;;;;;;6232149;28;20053;-82
2021/08/10 06:22:27;;;;;;;8.10;3.38;;;;;;;;;;6229823;28;20050;-82
2021/08/10 06:25:35;;;;;;;7.03;3.38;;;;;;;;;;6247245;28;20049;-81
2021/08/10 06:28:37;;;;;;;8.40;3.45;;;;;;;;;;6232145;28;21058;-81
2021/08/10 06:31:39;;;;;;;6.78;3.50;;;;;;;;;;6242087;28;20061;-82
2021/08/10 06:34:43;;;;;;;8.48;3.40;;;;;;;;;;6218307;28;20046;-82
2021/08/10 06:37:45;;;;;;;7.53;3.60;;;;;;;;;;6219169;28;20049;-81
2021/08/10 06:40:48;;;;;;;7.95;3.78;;;;;;;;;;6234383;28;20038;-82
2021/08/10 06:43:49;;;;;;;6.25;2.80;;;;;;;;;;6247930;28;20150;-82
2021/08/10 06:46:57;;;;;;;6.32;3.08;;;;;;;;;;6213095;28;20103;-82
2021/08/10 06:50:02;;;;;;;11.95;5.05;;;;;;;;;;6226897;28;20050;-82
2021/08/10 06:53:06;;;;;;;8.15;3.60;;;;;;;;;;6220746;28;20092;-81
2021/08/10 06:56:17;;;;;;;6.90;3.45;;;;;;;;;;6231605;28;20038;-84
2021/08/10 06:59:19;;;;;;;7.05;3.53;;;;;;;;;;6184962;28;20046;-82
2021/08/10 07:02:22;;;;;;;6.85;3.28;;;;;;;;;;6220721;28;20056;-83
2021/08/10 07:05:26;;;;;;;6.32;3.30;;;;;;;;;;6218425;28;20050;-82
2021/08/10 07:08:31;;;;;;;10.73;4.03;;;;;;;;;;6213083;28;20061;-82
2021/08/10 07:11:34;;;;;;;7.17;3.77;;;;;;;;;;6252601;28;20126;-83
2021/08/10 07:14:36;;;;;;;7.72;3.30;;;;;;;;;;6232587;28;20449;-82
2021/08/10 07:17:39;;;;;;;6.80;3.40;;;;;;;;;;6210455;28;20045;-82
2021/08/10 07:20:49;;;;;;;7.72;3.55;;;;;;;;;;6211576;28;20042;-83
2021/08/10 07:23:54;;;;;;;8.45;3.28;;;;;;;;;;6235321;28;20049;-82
2021/08/10 07:26:58;;;;;;;6.05;3.20;;;;;;;;;;6213892;28;20037;-83
2021/08/10 07:30:06;;;;;;;6.72;3.40;;;;;;;;;;6230299;28;20037;-82
2021/08/10 07:33:09;;;;;;;6.07;3.28;;;;;;;;;;6234312;28;20471;-83
2021/08/10 07:36:12;;;;;;;5.85;3.17;;;;;;;;;;6250905;28;20410;-82
2021/08/10 07:39:14;;;;;;;5.05;2.70;;;;;;;;;;6252143;28;20072;-83
2021/08/10 07:42:16;;;;;;;8.43;3.30;;;;;;;;;;6250481;28;20045;-83
2021/08/10 07:45:19;;;;;;;8.73;2.90;;;;;;;;;;6249940;28;20041;-82
2021/08/10 07:48:21;;;;;;;6.55;3.00;;;;;;;;;;6251753;28;20037;-83
2021/08/10 07:51:26;;;;;;;4.57;2.38;;;;;;;;;;6234862;28;20049;-81
2021/08/10 07:54:28;;;;;;;3.75;2.47;;;;;;;;;;6253479;28;20051;-82
2021/08/10 07:57:30;;;;;;;5.00;2.90;;;;;;;;;;6235819;28;20472;-83
2021/08/10 08:00:31;;;;;;;5.95;2.58;;;;;;;;;;6227570;28;20133;-83
2021/08/10 08:03:33;;;;;;;6.00;2.53;;;;;;;;;;6216883;28;20037;-84
2021/08/10 08:06:39;;;;;;;5.03;2.42;;;;;;;;;;6191232;28;20113;-83
2021/08/10 08:09:42;;;;;;;3.38;2.15;;;;;;;;;;6219474;28;20046;-83
2021/08/10 08:12:45;;;;;;;;;;;;;;;;;;6215524;28;20049;-83
2021/08/10 08:15:47;;;;;;;2.83;1.90;;;;;;;;;;6217486;28;19928;-82
2021/08/10 08:18:57;;;;;;;4.80;2.10;;;;;;;;;;6212793;28;20534;-83
2021/08/10 08:21:58;;;;;;;4.15;1.83;;;;;;;;;;6238207;28;20112;-83
2021/08/10 08:25:01;;;;;;;5.30;2.17;;;;;;;;;;6228141;28;20062;-83
2021/08/10 08:28:08;;;;;;;5.18;2.38;;;;;;;;;;6227246;28;20042;-82
2021/08/10 08:31:10;;;;;;;2.90;2.00;;;;;;;;;;6219278;28;20049;-83
2021/08/10 08:34:13;;;;;;;2.93;1.90;;;;;;;;;;6226573;28;20054;-82
2021/08/10 08:37:17;;;;;;;3.35;2.20;;;;;;;;;;6232097;28;20042;-83
2021/08/10 08:40:20;;;;;;;3.75;1.98;;;;;;;;;;6249864;28;20053;-83
2021/08/10 08:43:23;;;;;;;3.38;1.90;;;;;;;;;;6251840;28;20046;-82
2021/08/10 08:46:28;;;;;;;3.88;1.80;;;;;;;;;;6235366;28;20045;-82
2021/08/10 08:49:35;;;;;;;3.75;2.00;;;;;;;;;;6235184;28;20042;-82
2021/08/10 08:52:40;;;;;;;3.22;1.88;;;;;;;;;;6231992;28;20112;-83
2021/08/10 08:55:44;;;;;;;5.28;1.88;;;;;;;;;;6228945;28;20042;-82
2021/08/10 08:58:47;;;;;;;3.05;1.98;;;;;;;;;;6241633;28;20061;-83
2021/08/10 09:01:50;;;;;;;4.28;1.95;;;;;;;;;;6228861;28;20045;-83
2021/08/10 09:04:52;;;;;;;5.57;2.15;;;;;;;;;;6215623;28;20122;-82
2021/08/10 09:07:59;;;;;;;4.10;1.92;;;;;;;;;;6232477;28;20052;-82
2021/08/10 09:11:04;;;;;;;3.92;1.90;;;;;;;;;;6232803;28;20037;-83
2021/08/10 09:14:08;;;;;;;4.38;1.80;;;;;;;;;;6233587;28;20041;-83
2021/08/10 09:17:19;;;;;;;4.22;2.05;;;;;;;;;;6249464;28;20052;-83
2021/08/10 09:20:23;;;;;;;6.68;2.15;;;;;;;;;;6211887;28;20046;-85
2021/08/10 09:23:49;;;;;;;4.80;2.25;;;;;;;;;;6221092;28;20042;-82
2021/08/10 09:26:55;;;;;;;6.25;2.00;;;;;;;;;;6255767;28;20099;-83
2021/08/10 09:30:02;;;;;;;3.17;1.83;;;;;;;;;;6238610;28;20080;-82
2021/08/10 09:33:07;;;;;;;4.53;2.50;;;;;;;;;;6213543;28;20564;-83
2021/08/10 09:36:21;;;;;;;3.30;1.80;;;;;;;;;;6207019;28;20072;-83
2021/08/10 09:39:32;;;;;;;3.50;1.95;;;;;;;;;;6209812;28;20045;-82
2021/08/10 09:42:41;;;;;;;2.60;2.03;;;;;;;;;;6221942;28;20038;-83
2021/08/10 09:45:43;;;;;;;6.47;2.23;;;;;;;;;;6250557;28;20045;-82
2021/08/10 09:48:54;;;;;;;4.03;2.30;;;;;;;;;;6257912;28;20377;-83
2021/08/10 09:51:58;;;;;;;3.88;2.22;;;;;;;;;;6244592;28;20041;-82
2021/08/10 09:55:14;;;;;;;5.45;2.20;;;;;;;;;;6260252;28;20041;-83
2021/08/10 09:58:16;;;;;;;4.95;1.88;;;;;;;;;;6259038;28;20136;-81
2021/08/10 10:01:41;;;;;;;2.97;1.80;;;;;;;;;;6258169;28;20045;-82
2021/08/10 10:04:54;;;;;;;3.70;2.10;;;;;;;;;;6257215;28;20041;-83
2021/08/10 10:08:22;;;;;;;4.22;1.83;;;;;;;;;;6223139;28;20046;-82
2021/08/10 10:11:25;;;;;;;3.40;1.63;;;;;;;;;;6258073;28;20105;-82
2021/08/10 10:14:29;;;;;;;3.92;1.90;;;;;;;;;;6241097;28;20103;-82
2021/08/10 10:17:32;;;;;;;3.97;2.15;;;;;;;;;;6242366;28;20072;-83
2021/08/10 10:20:43;;;;;;;3.50;2.08;;;;;;;;;;6258344;28;20049;-83
2021/08/10 10:23:47;;;;;;;4.38;1.92;;;;;;;;;;6259521;28;20048;-82
2021/08/10 10:27:04;;;;;;;2.95;1.60;;;;;;;;;;6260089;28;20387;-82
2021/08/10 10:30:06;;;;;;;4.13;1.88;;;;;;;;;;6258753;28;20041;-82
2021/08/10 10:33:09;;;;;;;3.60;1.83;;;;;;;;;;6222384;28;20510;-83
2021/08/10 10:36:10;;;;;;;4.65;2.00;;;;;;;;;;6226248;28;20050;-83
2021/08/10 10:39:36;;;;;;;4.35;1.90;;;;;;;;;;6222853;28;20064;-83
2021/08/10 10:42:39;;;;;;;3.08;2.28;;;;;;;;;;6227695;28;20045;-82
2021/08/10 10:45:41;;;;;;;;;;;;;;;;;;6218059;28;20056;-83
2021/08/10 10:48:45;;;;;;;4.07;2.00;;;;;;;;;;6236579;28;19979;-83
2021/08/10 10:51:47;;;;;;;4.20;2.08;;;;;;;;;;6202738;28;20430;-82
2021/08/10 10:54:55;;;;;;;5.10;1.88;;;;;;;;;;6194499;28;20046;-82
2021/08/10 10:57:56;;;;;;;4.32;1.70;;;;;;;;;;6187799;28;20132;-81
2021/08/10 11:01:15;;;;;;;4.10;1.77;;;;;;;;;;6144196;28;20052;-83
2021/08/10 11:04:32;;;;;;;3.58;1.88;;;;;;;;;;6174141;28;20058;-83
2021/08/10 11:07:43;;;;;;;4.55;2.13;;;;;;;;;;6169021;28;20057;-83
2021/08/10 11:10:52;;;;;;;2.88;2.17;;;;;;;;;;6172785;28;20050;-81
2021/08/10 11:13:54;;;;;;;3.35;2.20;;;;;;;;;;6198754;28;20494;-81
2021/08/10 11:17:08;;;;;;;4.82;2.50;;;;;;;;;;6215519;28;20143;-81
2021/08/10 11:20:26;;;;;;;3.28;1.92;;;;;;;;;;6217030;28;20041;-82
2021/08/10 11:23:34;;;;;;;4.10;2.03;;;;;;;;;;6219361;28;20061;-82
2021/08/10 11:26:37;;;;;;;4.88;1.90;;;;;;;;;;6234150;28;20073;-83
2021/08/10 11:29:41;;;;;;;2.83;1.90;;;;;;;;;;6220193;28;20060;-82
2021/08/10 11:32:45;;;;;;;2.60;2.00;;;;;;;;;;6222804;28;20045;-81
2021/08/10 11:35:48;;;;;;;4.68;2.28;;;;;;;;;;6213819;28;20045;-82
2021/08/10 11:38:52;;;;;;;3.50;2.30;;;;;;;;;;6242062;28;20049;-82
2021/08/10 11:41:53;;;;;;;3.55;2.10;;;;;;;;;;6221747;28;20052;-82
2021/08/10 11:45:00;;;;;;;3.22;1.90;;;;;;;;;;6218409;28;20054;-82
2021/08/10 11:48:03;;;;;;;3.65;1.90;;;;;;;;;;6207553;28;20049;-82
2021/08/10 11:51:24;;;;;;;4.45;2.10;;;;;;;;;;6230393;28;20160;-81
2021/08/10 11:54:25;;;;;;;2.88;2.10;;;;;;;;;;6239053;28;20120;-80
2021/08/10 11:57:27;;;;;;;3.97;2.20;;;;;;;;;;6225621;28;20052;-82
2021/08/10 12:00:31;;;;;;;3.53;2.20;;;;;;;;;;6250269;28;20111;-81
2021/08/10 12:03:33;;;;;;;3.08;2.05;;;;;;;;;;6252109;28;20053;-81
2021/08/10 12:06:35;;;;;;;3.40;1.83;;;;;;;;;;6220497;28;20049;-81
2021/08/10 12:09:42;;;;;;;3.70;2.33;;;;;;;;;;6227748;28;20443;-82
2021/08/10 12:12:44;;;;;;;3.38;2.30;;;;;;;;;;6230447;28;20042;-81
2021/08/10 12:15:46;;;;;;;4.78;2.33;;;;;;;;;;6229323;28;20046;-82
2021/08/10 12:18:49;;;;;;;;;;;;;;;;;;6216363;28;20045;-80
2021/08/10 12:21:53;;;;;;;4.18;2.50;;;;;;;;;;6223450;28;19931;-81
2021/08/10 12:25:00;;;;;;;3.53;2.10;;;;;;;;;;6231411;28;20072;-80
2021/08/10 12:28:04;;;;;;;3.90;2.20;;;;;;;;;;6238757;28;20033;-80
2021/08/10 12:31:06;;;;;;;5.40;2.40;;;;;;;;;;6221873;28;20059;-80
2021/08/10 12:34:08;;;;;;;7.47;2.67;;;;;;;;;;6232964;28;20076;-79
2021/08/10 12:37:10;;;;;;;5.28;3.30;;;;;;;;;;6236047;28;20044;-79
2021/08/10 12:40:18;;;;;;;3.95;2.33;;;;;;;;;;6232056;28;20125;-80
2021/08/10 12:43:21;;;;;;;3.42;2.30;;;;;;;;;;6214258;28;20059;-80
2021/08/10 12:46:26;;;;;;;5.38;2.33;;;;;;;;;;6204402;28;20196;-80
2021/08/10 12:49:36;;;;;;;2.13;1.70;;;;;;;;;;6208471;28;20058;-81
2021/08/10 12:52:45;;;;;;;4.05;2.15;;;;;;;;;;6223498;28;20047;-81
2021/08/10 12:55:50;;;;;;;3.67;1.90;;;;;;;;;;6231882;28;20046;-81
2021/08/10 12:58:53;;;;;;;2.22;1.60;;;;;;;;;;6238757;28;20045;-80
2021/08/10 13:01:54;;;;;;;2.63;1.58;;;;;;;;;;6230301;28;20045;-81
2021/08/10 13:04:57;;;;;;;2.87;1.47;;;;;;;;;;6189215;28;20048;-81
2021/08/10 13:08:09;;;;;;;1.92;1.65;;;;;;;;;;6202693;28;20154;-81
2021/08/10 13:11:21;;;;;;;3.15;1.45;;;;;;;;;;6221707;28;20057;-81
2021/08/10 13:14:23;;;;;;;2.40;1.58;;;;;;;;;;6219666;28;20059;-81
2021/08/10 13:17:36;;;;;;;2.67;1.63;;;;;;;;;;6237114;28;20045;-80
2021/08/10 13:20:47;;;;;;;1.80;1.40;;;;;;;;;;6236430;28;20050;-81
2021/08/10 13:24:05;;;;;;;3.40;1.65;;;;;;;;;;6221758;28;20060;-81
2021/08/10 13:27:06;;;;;;;2.55;1.67;;;;;;;;;;6219177;28;20064;-81
2021/08/10 13:30:18;;;;;;;2.90;1.40;;;;;;;;;;6219986;28;20069;-81
2021/08/10 13:33:21;;;;;;;1.95;1.50;;;;;;;;;;6221875;28;20042;-82
2021/08/10 13:36:25;;;;;;;2.28;1.58;;;;;;;;;;6221028;28;20161;-81
2021/08/10 13:39:27;;;;;;;1.73;1.52;;;;;;;;;;6234249;28;20061;-82
2021/08/10 13:42:28;;;;;;;4.00;1.80;;;;;;;;;;6235271;28;20057;-82
2021/08/10 13:45:37;;;;;;;2.63;1.70;;;;;;;;;;6252481;28;20056;-82
2021/08/10 13:48:39;;;;;;;1.88;1.73;;;;;;;;;;6221519;28;20045;-81
2021/08/10 13:51:41;;;;;;;2.35;1.83;;;;;;;;;;6223418;28;20141;-81
2021/08/10 13:54:42;;;;;;;3.28;1.70;;;;;;;;;;6229453;28;20042;-81
2021/08/10 13:57:44;;;;;;;3.43;2.17;;;;;;;;;;6230551;28;20046;-81
2021/08/10 14:00:46;;;;;;;3.45;1.50;;;;;;;;;;6230079;28;20042;-81
2021/08/10 14:03:48;;;;;;;2.97;1.90;;;;;;;;;;6228498;28;20120;-82
2021/08/10 14:06:50;;;;;;;1.95;1.73;;;;;;;;;;6238241;28;20045;-81
2021/08/10 14:09:52;;;;;;;3.25;1.90;;;;;;;;;;6228390;28;20088;-81
2021/08/10 14:12:54;;;;;;;3.58;2.10;;;;;;;;;;6225263;28;20044;-81
2021/08/10 14:15:56;;;;;;;1.80;1.40;;;;;;;;;;6244398;28;20052;-82
2021/08/10 14:18:57;;;;;;;3.80;1.85;;;;;;;;;;6257852;28;20499;-81
2021/08/10 14:21:59;;;;;;;2.50;2.08;;;;;;;;;;6249052;28;20099;-82
2021/08/10 14:25:02;;;;;;;2.47;1.52;;;;;;;;;;6235105;28;20057;-82
2021/08/10 14:28:03;;;;;;;2.05;1.65;;;;;;;;;;6257871;28;20041;-82
2021/08/10 14:31:10;;;;;;;3.03;1.80;;;;;;;;;;6257340;28;20045;-82
2021/08/10 14:34:19;;;;;;;3.38;1.95;;;;;;;;;;6214903;28;20037;-81
2021/08/10 14:37:21;;;;;;;3.47;2.47;;;;;;;;;;6187318;28;20057;-83
2021/08/10 14:40:26;;;;;;;2.97;2.00;;;;;;;;;;6218984;28;20069;-81
2021/08/10 14:43:27;;;;;;;2.92;2.30;;;;;;;;;;6203801;28;20054;-82
2021/08/10 14:46:34;;;;;;;3.85;2.47;;;;;;;;;;6150853;28;20046;-83
2021/08/10 14:49:56;;;;;;;3.78;2.50;;;;;;;;;;6155788;28;20042;-82
2021/08/10 14:53:06;;;;;;;2.95;2.30;;;;;;;;;;6140198;28;20039;-82
2021/08/10 14:56:28;;;;;;;3.83;2.60;;;;;;;;;;6179587;28;20046;-82
2021/08/10 14:59:35;;;;;;;3.90;2.53;;;;;;;;;;6181267;28;20079;-82
2021/08/10 15:02:51;;;;;;;3.33;2.50;;;;;;;;;;6133884;28;20057;-82
2021/08/10 15:05:55;;;;;;;3.90;2.60;;;;;;;;;;6143184;28;20431;-82
2021/08/10 15:09:25;;;;;;;3.53;2.67;;;;;;;;;;6172204;28;20056;-82
2021/08/10 15:12:45;;;;;;;3.13;2.70;;;;;;;;;;6130943;28;20053;-82
2021/08/10 15:16:10;;;;;;;3.95;2.70;;;;;;;;;;6190927;28;20061;-82
2021/08/10 15:19:26;;;;;;;3.67;2.45;;;;;;;;;;6228326;28;20312;-82
2021/08/10 15:22:27;;;;;;;4.13;2.80;;;;;;;;;;6190927;28;20118;-82
2021/08/10 15:25:39;;;;;;;4.70;3.27;;;;;;;;;;6159140;28;20045;-82
2021/08/10 15:28:44;;;;;;;4.68;2.80;;;;;;;;;;6148762;28;20030;-82
2021/08/10 15:31:49;;;;;;;4.32;3.00;;;;;;;;;;6175995;28;20048;-81
2021/08/10 15:34:51;;;;;;;4.20;2.55;;;;;;;;;;6223735;28;20053;-81
2021/08/10 15:37:54;;;;;;;4.90;2.72;;;;;;;;;;6258051;28;20068;-80
2021/08/10 15:40:56;;;;;;;4.72;3.15;;;;;;;;;;6215675;28;20070;-80
2021/08/10 15:43:58;;;;;;;6.93;3.70;;;;;;;;;;6170863;28;29881;-82
2021/08/10 15:47:00;;;;;;;6.60;3.80;;;;;;;;;;6231763;28;20127;-81
2021/08/10 15:50:04;;;;;;;9.60;3.78;;;;;;;;;;6172003;28;148933;-80
2021/08/10 15:53:07;;;;;;;4.57;2.78;;;;;;;;;;6144782;28;20112;-81
2021/08/10 15:56:09;;;;;;;4.68;2.70;;;;;;;;;;6197089;28;25089;-79
2021/08/10 15:59:12;;;;;;;3.95;2.35;;;;;;;;;;6235742;28;20041;-80
2021/08/10 16:02:13;;;;;;;4.43;2.53;;;;;;;;;;6255968;28;20117;-81
2021/08/10 16:05:15;;;;;;;3.45;2.42;;;;;;;;;;6243459;28;20097;-81
2021/08/10 16:08:17;;;;;;;5.25;2.25;;;;;;;;;;6239399;28;20069;-79
2021/08/10 16:11:19;;;;;;;6.20;2.10;;;;;;;;;;6227271;28;20065;-79
2021/08/10 16:14:20;;;;;;;2.80;1.75;;;;;;;;;;6225928;28;20058;-78
2021/08/10 16:17:22;;;;;;;2.63;1.80;;;;;;;;;;6245859;28;20064;-81
2021/08/10 16:20:24;;;;;;;5.18;3.67;;;;;;;;;;6232462;28;20136;-78
2021/08/10 16:23:25;;;;;;;4.68;2.72;;;;;;;;;;6236875;28;20050;-79
2021/08/10 16:26:27;;;;;;;6.13;4.40;;;;;;;;;;6228620;28;20069;-79
2021/08/10 16:29:29;;;;;;;5.40;2.90;;;;;;;;;;6230168;28;20125;-81
2021/08/10 16:32:31;;;;;;;4.03;2.60;;;;;;;;;;6192901;28;20041;-79
2021/08/10 16:35:48;;;;;;;5.55;2.55;;;;;;;;;;6234033;28;20053;-79
2021/08/10 16:38:51;;;;;;;6.25;2.70;;;;;;;;;;6234081;28;20041;-79
2021/08/10 16:41:53;;;;;;;6.60;2.55;;;;;;;;;;6250742;28;20136;-79
2021/08/10 16:44:54;;;;;;;5.22;2.85;;;;;;;;;;6236098;28;20030;-79
2021/08/10 16:47:56;;;;;;;4.55;2.38;;;;;;;;;;6229658;28;20092;-79
2021/08/10 16:50:58;;;;;;;4.93;2.20;;;;;;;;;;6244712;28;20080;-79
2021/08/10 16:54:00;;;;;;;5.47;2.75;;;;;;;;;;6230052;28;20045;-79
2021/08/10 16:57:03;;;;;;;6.72;3.10;;;;;;;;;;6234327;28;20061;-78
2021/08/10 17:00:05;;;;;;;;;;;;;;;;;;6251167;28;20053;-79
2021/08/10 17:03:06;;;;;;;5.32;3.30;;;;;;;;;;6252093;28;20409;-81
2021/08/10 17:06:08;;;;;;;4.80;3.00;;;;;;;;;;6234291;28;20045;-80
2021/08/10 17:09:10;;;;;;;3.60;2.07;;;;;;;;;;6238827;28;20109;-79
2021/08/10 17:12:12;;;;;;;4.70;2.42;;;;;;;;;;6255925;28;20041;-79
2021/08/10 17:15:14;;;;;;;5.60;2.83;;;;;;;;;;6237554;28;20487;-78
2021/08/10 17:18:15;;;;;;;5.20;2.60;;;;;;;;;;6238969;28;20061;-79
2021/08/10 17:21:17;;;;;;;4.00;2.60;;;;;;;;;;6249495;28;20384;-80
2021/08/10 17:24:19;;;;;;;6.80;2.72;;;;;;;;;;6229770;28;20045;-79
2021/08/10 17:27:20;;;;;;;6.88;2.92;;;;;;;;;;6239200;28;20116;-79
2021/08/10 17:30:22;;;;;;;4.32;2.63;;;;;;;;;;6234747;28;20113;-79
2021/08/10 17:33:26;;;;;;;5.93;3.03;;;;;;;;;;6228401;28;20050;-79
2021/08/10 17:36:27;;;;;;;5.20;3.30;;;;;;;;;;6243804;28;20053;-80
2021/08/10 17:39:29;;;;;;;6.20;4.03;;;;;;;;;;6236936;28;20053;-80
2021/08/10 17:42:31;;;;;;;4.38;2.90;;;;;;;;;;6237358;28;20059;-79
2021/08/10 17:45:34;;;;;;;4.85;2.90;;;;;;;;;;6258905;28;20045;-80
2021/08/10 17:48:36;;;;;;;5.40;2.72;;;;;;;;;;6257059;28;20049;-80
2021/08/10 17:51:42;;;;;;;5.80;2.92;;;;;;;;;;6235862;28;20042;-80
2021/08/10 17:54:44;;;;;;;8.18;2.92;;;;;;;;;;6257968;28;20084;-80
2021/08/10 17:57:46;;;;;;;4.13;2.47;;;;;;;;;;6258196;28;20097;-80
2021/08/10 18:00:48;;;;;;;4.47;2.60;;;;;;;;;;6258995;28;20115;-80
2021/08/10 18:03:50;;;;;;;7.72;2.97;;;;;;;;;;6259638;28;20068;-80
2021/08/10 18:06:52;;;;;;;5.45;3.38;;;;;;;;;;6259055;28;20128;-80
2021/08/10 18:09:53;;;;;;;4.78;2.90;;;;;;;;;;6258813;28;20123;-80
2021/08/10 18:12:56;;;;;;;5.57;3.13;;;;;;;;;;6258931;28;20114;-80
2021/08/10 18:15:57;;;;;;;8.35;3.53;;;;;;;;;;6241321;28;20061;-80
2021/08/10 18:18:59;;;;;;;6.95;3.65;;;;;;;;;;6227402;28;20049;-80
2021/08/10 18:22:01;;;;;;;5.25;3.92;;;;;;;;;;6254231;28;20056;-79
2021/08/10 18:25:05;;;;;;;8.20;4.05;;;;;;;;;;6241748;28;20116;-79
2021/08/10 18:28:07;;;;;;;7.45;4.28;;;;;;;;;;6259610;28;20057;-79
2021/08/10 18:31:08;;;;;;;9.00;4.45;;;;;;;;;;6256461;28;20056;-78